Time;durP1;ratioP1;P1;durP2;ratioP2;P2;SDS_P1;SDS_P2;PMS_P1;PMS_P2;Temp;Humidity;BMP_temperature;BMP_pressure;BME280_temperature;BME280_humidity;BME280_pressure;Samples;Min_cycle;Max_cycle;Signal;HPM_P1;HPM_P2
2021/01/19 00:01:08;;;;;;;;;;;-0.50;99.90;;;;;;5079346;28;20003;-77
2021/01/19 00:03:34;;;;;;;;;;;-0.50;99.90;;;;;;5071807;28;20002;-77
2021/01/19 00:05:59;;;;;;;;;;;-0.50;99.90;;;;;;5069492;28;19947;-77
2021/01/19 00:08:25;;;;;;;;;;;-0.50;99.90;;;;;;5069507;28;19917;-77
2021/01/19 00:10:50;;;;;;;;;;;-0.50;99.90;;;;;;5080352;28;20205;-76
2021/01/19 00:13:20;;;;;;;;;;;-0.50;99.90;;;;;;5089360;28;19908;-77
2021/01/19 00:15:46;;;;;;;;;;;-0.50;99.90;;;;;;5072107;28;19912;-77
2021/01/19 00:18:12;;;;;;;;;;;-0.50;99.90;;;;;;5072442;28;20011;-77
2021/01/19 00:20:37;;;;;;;;;;;-0.50;99.90;;;;;;5078881;28;20011;-77
2021/01/19 00:23:03;;;;;;;;;;;-0.50;99.90;;;;;;5072409;28;20011;-76
2021/01/19 00:25:28;;;;;;;;;;;-0.50;99.90;;;;;;5072316;28;19909;-77
2021/01/19 00:27:54;;;;;;;;;;;-0.50;99.90;;;;;;5071684;28;20381;-77
2021/01/19 00:30:19;;;;;;;;;;;-0.50;99.90;;;;;;5079310;28;19912;-77
2021/01/19 00:32:45;;;;;;;;;;;-0.50;99.90;;;;;;5089833;28;19994;-76
2021/01/19 00:35:10;;;;;;;;;;;-0.50;99.90;;;;;;5091643;28;19909;-76
2021/01/19 00:37:36;;;;;;;;;;;-0.50;99.90;;;;;;5091227;28;19915;-76
2021/01/19 00:40:02;;;;;;;;;;;-0.50;99.90;;;;;;5091466;28;19953;-78
2021/01/19 00:42:28;;;;;;;;;;;-0.50;99.90;;;;;;5090889;28;20019;-76
2021/01/19 00:44:53;;;;;;;;;;;-0.50;99.90;;;;;;5091243;28;19924;-77
2021/01/19 00:47:19;;;;;;;;;;;-0.50;99.90;;;;;;5091078;28;19908;-76
2021/01/19 00:49:44;;;;;;;;;;;-0.50;99.90;;;;;;5071741;28;19994;-77
2021/01/19 00:52:10;;;;;;;;;;;-0.50;99.90;;;;;;5071886;28;19908;-77
2021/01/19 00:54:36;;;;;;;;;;;-0.60;99.90;;;;;;5071947;28;19909;-77
2021/01/19 00:57:01;;;;;;;;;;;-0.70;99.90;;;;;;5071122;28;20003;-77
2021/01/19 00:59:27;;;;;;;;;;;-0.70;99.90;;;;;;5076992;28;19951;-77
2021/01/19 01:01:52;;;;;;;;;;;-0.80;99.90;;;;;;5073856;28;19919;-76
2021/01/19 01:04:18;;;;;;;;;;;-0.80;99.90;;;;;;5070486;28;20403;-76
2021/01/19 01:06:43;;;;;;;;;;;-0.90;99.90;;;;;;5071271;28;19908;-77
2021/01/19 01:09:09;;;;;;;;;;;-0.90;99.90;;;;;;5071520;28;19961;-76
2021/01/19 01:11:39;;;;;;;;;;;-0.90;99.90;;;;;;5070121;28;19912;-78
2021/01/19 01:14:05;;;;;;;;;;;-0.90;99.90;;;;;;5071654;28;19967;-76
2021/01/19 01:16:30;;;;;;;;;;;-0.90;99.90;;;;;;5071442;28;20095;-76
2021/01/19 01:18:56;;;;;;;;;;;-0.90;99.90;;;;;;5071459;28;19908;-77
2021/01/19 01:21:21;;;;;;;;;;;-1.00;99.90;;;;;;5071588;28;19998;-77
2021/01/19 01:23:47;;;;;;;;;;;-1.10;99.90;;;;;;5071582;28;19915;-76
2021/01/19 01:26:14;;;;;;;;;;;-1.10;99.90;;;;;;5071079;28;19935;-76
2021/01/19 01:28:40;;;;;;;;;;;-1.20;99.90;;;;;;5070000;28;19908;-76
2021/01/19 01:31:05;;;;;;;;;;;-1.30;99.90;;;;;;5085366;28;19917;-77
2021/01/19 01:33:30;;;;;;;;;;;-1.30;99.90;;;;;;5073806;28;19916;-77
2021/01/19 01:35:56;;;;;;;;;;;-1.40;99.90;;;;;;5070937;28;19923;-76
2021/01/19 01:38:21;;;;;;;;;;;-1.50;99.90;;;;;;5071197;28;19919;-77
2021/01/19 01:40:47;;;;;;;;;;;-1.50;99.90;;;;;;5071017;28;19957;-77
2021/01/19 01:43:13;;;;;;;;;;;-1.60;99.90;;;;;;5071316;28;19916;-76
2021/01/19 01:45:39;;;;;;;;;;;-1.70;99.90;;;;;;5070977;28;19916;-78
2021/01/19 01:48:07;;;;;;;;;;;-1.70;99.90;;;;;;5071190;28;19916;-77
2021/01/19 01:50:32;;;;;;;;;;;-1.70;99.90;;;;;;5071167;28;20392;-76
2021/01/19 01:52:58;;;;;;;;;;;-1.70;99.90;;;;;;5069908;28;19912;-77
2021/01/19 01:55:23;;;;;;;;;;;-1.70;99.90;;;;;;5072246;28;19909;-77
2021/01/19 01:57:50;;;;;;;;;;;-1.70;99.90;;;;;;5074693;28;19999;-76
2021/01/19 02:00:17;;;;;;;;;;;-1.70;99.90;;;;;;5075773;28;19930;-77
2021/01/19 02:02:48;;;;;;;;;;;-1.60;99.90;;;;;;5090682;28;20339;-77
2021/01/19 02:05:14;;;;;;;;;;;-1.50;99.90;;;;;;5075072;28;20015;-76
2021/01/19 02:07:44;;;;;;;;;;;-1.60;99.90;;;;;;5074576;28;20384;-77
2021/01/19 02:10:15;;;;;;;;;;;-1.50;99.90;;;;;;5074680;28;19913;-76
2021/01/19 02:12:47;;;;;;;;;;;-1.60;99.90;;;;;;5074929;28;19912;-77
2021/01/19 02:15:13;;;;;;;;;;;-1.50;99.90;;;;;;5074821;28;19912;-76
2021/01/19 02:18:01;;;;;;;;;;;-1.50;99.90;;;;;;5074460;28;20377;-76
2021/01/19 02:20:45;;;;;;;;;;;-1.50;99.90;;;;;;5074483;28;19908;-77
2021/01/19 02:23:15;;;;;;;;;;;-1.50;99.90;;;;;;5088504;28;19908;-76
2021/01/19 02:25:40;;;;;;;;;;;-1.40;99.90;;;;;;5092340;28;19908;-76
2021/01/19 02:28:06;;;;;;;;;;;-1.50;99.90;;;;;;5091484;28;19908;-76
2021/01/19 02:30:37;;;;;;;;;;;-1.50;99.90;;;;;;5087281;28;20011;-77
2021/01/19 02:33:17;;;;;;;;;;;-1.50;99.90;;;;;;5074196;28;19909;-76
2021/01/19 02:35:46;;;;;;;;;;;-1.40;99.90;;;;;;5073948;28;19938;-77
2021/01/19 02:38:28;;;;;;;;;;;-1.40;99.90;;;;;;5074228;28;19908;-76
2021/01/19 02:40:54;;;;;;;;;;;-1.50;99.90;;;;;;5074525;28;19919;-77
2021/01/19 02:43:23;;;;;;;;;;;-1.40;99.90;;;;;;5074100;28;19908;-76
2021/01/19 02:45:49;;;;;;;;;;;-1.40;99.90;;;;;;5073756;28;19908;-77
2021/01/19 02:48:16;;;;;;;;;;;-1.40;99.90;;;;;;5073895;28;19913;-77
2021/01/19 02:50:41;;;;;;;;;;;-1.30;99.90;;;;;;5074341;28;19909;-76
2021/01/19 02:53:08;;;;;;;;;;;-1.30;99.90;;;;;;5074087;28;20410;-77
2021/01/19 02:55:33;;;;;;;;;;;-1.20;99.90;;;;;;5073591;28;19909;-77
2021/01/19 02:57:59;;;;;;;;;;;-1.10;99.90;;;;;;5073571;28;19916;-77
2021/01/19 03:00:27;;;;;;;;;;;-1.10;99.90;;;;;;5081726;28;19961;-77
2021/01/19 03:02:53;;;;;;;;;;;-1.00;99.90;;;;;;5078055;28;19916;-77
2021/01/19 03:05:20;;;;;;;;;;;-1.00;99.90;;;;;;5073774;28;20262;-77
2021/01/19 03:07:47;;;;;;;;;;;-0.90;99.90;;;;;;5073033;28;20339;-76
2021/01/19 03:10:15;;;;;;;;;;;-0.80;99.90;;;;;;5073524;28;20300;-77
2021/01/19 03:12:42;;;;;;;;;;;-0.80;99.90;;;;;;5073567;28;19954;-76
2021/01/19 03:15:08;;;;;;;;;;;-0.70;99.90;;;;;;5072274;28;19908;-77
2021/01/19 03:17:33;;;;;;;;;;;-0.70;99.90;;;;;;5073221;28;19970;-76
2021/01/19 03:19:59;;;;;;;;;;;-0.70;99.90;;;;;;5072175;28;20364;-77
2021/01/19 03:22:24;;;;;;;;;;;-0.70;99.90;;;;;;5073491;28;19923;-77
2021/01/19 03:24:50;;;;;;;;;;;-0.60;99.90;;;;;;5083107;28;20444;-76
2021/01/19 03:27:15;;;;;;;;;;;-0.60;99.90;;;;;;5092344;28;19908;-78
2021/01/19 03:29:41;;;;;;;;;;;-0.60;99.90;;;;;;5084439;28;19912;-77
2021/01/19 03:32:06;;;;;;;;;;;-0.60;99.90;;;;;;5090607;28;20385;-76
2021/01/19 03:34:33;;;;;;;;;;;-0.50;99.90;;;;;;5073367;28;19977;-77
2021/01/19 03:36:59;;;;;;;;;;;-0.50;99.90;;;;;;5072680;28;19912;-76
2021/01/19 03:39:24;;;;;;;;;;;-0.50;99.90;;;;;;5073062;28;20362;-77
2021/01/19 03:41:50;;;;;;;;;;;-0.50;99.90;;;;;;5073119;28;19912;-78
2021/01/19 03:44:15;;;;;;;;;;;-0.50;99.90;;;;;;5073178;28;19913;-77
2021/01/19 03:46:40;;;;;;;;;;;-0.50;99.90;;;;;;5079387;28;19908;-77
2021/01/19 03:49:06;;;;;;;;;;;-0.50;99.90;;;;;;5080245;28;20266;-77
2021/01/19 03:51:31;;;;;;;;;;;-0.50;99.90;;;;;;5091772;28;20269;-77
2021/01/19 03:53:57;;;;;;;;;;;-0.50;99.90;;;;;;5079448;28;20003;-77
2021/01/19 03:56:22;;;;;;;;;;;-0.50;99.90;;;;;;5072446;28;19914;-77
2021/01/19 03:58:48;;;;;;;;;;;-0.50;99.90;;;;;;5072746;28;20272;-77
2021/01/19 04:01:14;;;;;;;;;;;-0.50;99.90;;;;;;5079592;28;19913;-77
2021/01/19 04:03:39;;;;;;;;;;;-0.50;99.90;;;;;;5085636;28;19908;-77
2021/01/19 04:06:06;;;;;;;;;;;-0.50;99.90;;;;;;5091748;28;19912;-77
2021/01/19 04:08:31;;;;;;;;;;;-0.40;99.90;;;;;;5092153;28;19908;-77
2021/01/19 04:10:57;;;;;;;;;;;-0.50;99.90;;;;;;5093256;28;19908;-77
2021/01/19 04:13:22;;;;;;;;;;;-0.50;99.90;;;;;;5092921;28;19908;-77
2021/01/19 04:15:48;;;;;;;;;;;-0.50;99.90;;;;;;5091690;28;19908;-77
2021/01/19 04:18:13;;;;;;;;;;;-0.50;99.90;;;;;;5090982;28;19934;-77
2021/01/19 04:20:39;;;;;;;;;;;-0.50;99.90;;;;;;5092148;28;20262;-77
2021/01/19 04:23:04;;;;;;;;;;;-0.60;99.90;;;;;;5088861;28;19912;-77
2021/01/19 04:25:30;;;;;;;;;;;-0.60;99.90;;;;;;5083812;28;19915;-77
2021/01/19 04:27:55;;;;;;;;;;;-0.60;99.90;;;;;;5080060;28;20007;-77
2021/01/19 04:30:21;;;;;;;;;;;-0.60;99.90;;;;;;5079870;28;19927;-77
2021/01/19 04:32:47;;;;;;;;;;;-0.70;99.90;;;;;;5090574;28;19991;-77
2021/01/19 04:35:13;;;;;;;;;;;-0.70;99.90;;;;;;5074051;28;19962;-77
2021/01/19 04:37:39;;;;;;;;;;;-0.80;99.90;;;;;;5081482;28;19909;-77
2021/01/19 04:40:06;;;;;;;;;;;-0.80;99.90;;;;;;5082001;28;19916;-77
2021/01/19 04:42:32;;;;;;;;;;;-0.80;99.90;;;;;;5072413;28;19920;-77
2021/01/19 04:44:58;;;;;;;;;;;-0.80;99.90;;;;;;5079001;28;20018;-77
2021/01/19 04:47:24;;;;;;;;;;;-0.80;99.90;;;;;;5071916;28;19915;-77
2021/01/19 04:49:51;;;;;;;;;;;-0.80;99.90;;;;;;5072147;28;19908;-77
2021/01/19 04:52:17;;;;;;;;;;;-0.80;99.90;;;;;;5085172;28;19908;-77
2021/01/19 04:54:59;;;;;;;;;;;-0.80;99.90;;;;;;5078519;28;19908;-77
2021/01/19 04:57:27;;;;;;;;;;;-0.80;99.90;;;;;;5075897;28;19919;-77
2021/01/19 04:59:58;;;;;;;;;;;-0.80;99.90;;;;;;5084568;28;19908;-77
2021/01/19 05:02:42;;;;;;;;;;;-0.80;99.90;;;;;;5093104;28;19913;-77
2021/01/19 05:05:21;;;;;;;;;;;-0.80;99.90;;;;;;5085094;28;20369;-77
2021/01/19 05:08:06;;;;;;;;;;;-0.80;99.90;;;;;;5089713;28;20276;-76
2021/01/19 05:13:35;;;;;;;;;;;-0.80;99.90;;;;;;5074327;28;19959;-77
2021/01/19 05:16:01;;;;;;;;;;;-0.80;99.90;;;;;;5075600;28;20301;-77
2021/01/19 05:18:27;;;;;;;;;;;-0.90;99.90;;;;;;5071665;28;19912;-77
2021/01/19 05:20:52;;;;;;;;;;;-0.90;99.90;;;;;;5072032;28;20057;-77
2021/01/19 05:23:21;;;;;;;;;;;-0.90;99.90;;;;;;5071575;28;19908;-77
2021/01/19 05:25:54;;;;;;;;;;;-0.90;99.90;;;;;;5071682;28;20380;-77
2021/01/19 05:28:27;;;;;;;;;;;-1.00;99.90;;;;;;5088272;28;19911;-77
2021/01/19 05:30:53;;;;;;;;;;;-1.00;99.90;;;;;;5088056;28;20384;-77
2021/01/19 05:33:18;;;;;;;;;;;-1.00;99.90;;;;;;5074462;28;19910;-77
2021/01/19 05:35:44;;;;;;;;;;;-1.10;99.90;;;;;;5071148;28;19908;-77
2021/01/19 05:38:09;;;;;;;;;;;-1.10;99.90;;;;;;5087166;28;19999;-77
2021/01/19 05:40:41;;;;;;;;;;;-1.10;99.90;;;;;;5089094;28;19919;-77
2021/01/19 05:43:13;;;;;;;;;;;-1.10;99.90;;;;;;5090777;28;20369;-77
2021/01/19 05:46:04;;;;;;;;;;;-1.10;99.90;;;;;;5090851;28;19908;-77
2021/01/19 05:48:40;;;;;;;;;;;-1.10;99.90;;;;;;5081388;28;20292;-77
2021/01/19 05:51:09;;;;;;;;;;;-1.10;99.90;;;;;;5071306;28;20345;-77
2021/01/19 05:53:36;;;;;;;;;;;-1.10;99.90;;;;;;5072899;28;19955;-77
2021/01/19 05:56:02;;;;;;;;;;;-1.10;99.90;;;;;;5090392;28;19954;-77
2021/01/19 05:58:33;;;;;;;;;;;-1.10;99.90;;;;;;5076138;28;19912;-77
2021/01/19 06:01:01;;;;;;;;;;;-1.20;99.90;;;;;;5081116;28;19919;-77
2021/01/19 06:03:28;;;;;;;;;;;-1.20;99.90;;;;;;5074136;28;19962;-77
2021/01/19 06:05:53;;;;;;;;;;;-1.20;99.90;;;;;;5079494;28;19908;-77
2021/01/19 06:08:22;;;;;;;;;;;-1.10;99.90;;;;;;5075717;28;19916;-77
2021/01/19 06:10:48;;;;;;;;;;;-1.10;99.90;;;;;;5079486;28;19916;-77
2021/01/19 06:13:14;;;;;;;;;;;-1.10;99.90;;;;;;5090667;28;19914;-77
2021/01/19 06:15:41;;;;;;;;;;;-1.20;99.90;;;;;;5090044;28;19908;-77
2021/01/19 06:18:07;;;;;;;;;;;-1.20;99.90;;;;;;5090726;28;19924;-77
2021/01/19 06:20:39;;;;;;;;;;;-1.20;99.90;;;;;;5090289;28;19912;-77
2021/01/19 06:23:05;;;;;;;;;;;-1.20;99.90;;;;;;5083873;28;20444;-77
2021/01/19 06:25:31;;;;;;;;;;;-1.20;99.90;;;;;;5090391;28;19954;-77
2021/01/19 06:28:06;;;;;;;;;;;-1.30;99.90;;;;;;5090252;28;19908;-77
2021/01/19 06:30:31;;;;;;;;;;;-1.30;99.90;;;;;;5078438;28;20485;-77
2021/01/19 06:32:59;;;;;;;;;;;-1.30;99.90;;;;;;5082540;28;20011;-77
2021/01/19 06:35:24;;;;;;;;;;;-1.40;99.90;;;;;;5090274;28;19916;-77
2021/01/19 06:37:50;;;;;;;;;;;-1.40;99.90;;;;;;5088097;28;19908;-77
2021/01/19 06:40:17;;;;;;;;;;;-1.40;99.90;;;;;;5071335;28;19908;-77
2021/01/19 06:42:53;;;;;;;;;;;-1.40;99.90;;;;;;5089218;28;19912;-77
2021/01/19 06:45:20;;;;;;;;;;;-1.40;99.90;;;;;;5077660;28;20313;-77
2021/01/19 06:47:49;;;;;;;;;;;-1.40;99.90;;;;;;5086433;28;20381;-77
2021/01/19 06:50:18;;;;;;;;;;;-1.40;99.90;;;;;;5086824;28;19917;-77
2021/01/19 06:52:48;;;;;;;;;;;-1.40;99.90;;;;;;5076185;28;19916;-77
2021/01/19 06:55:21;;;;;;;;;;;-1.40;99.90;;;;;;5074859;28;19909;-77
2021/01/19 06:57:48;;;;;;;;;;;-1.50;99.90;;;;;;5077029;28;20725;-77
2021/01/19 07:00:18;;;;;;;;;;;-1.50;99.90;;;;;;5072343;28;19908;-77
2021/01/19 07:02:44;;;;;;;;;;;-1.60;99.90;;;;;;5072253;28;20004;-77
2021/01/19 07:05:11;;;;;;;;;;;-1.60;99.90;;;;;;5075922;28;20380;-77
2021/01/19 07:07:43;;;;;;;;;;;-1.60;99.90;;;;;;5075774;28;19912;-77
2021/01/19 07:10:15;;;;;;;;;;;-1.60;99.90;;;;;;5075783;28;19909;-77
2021/01/19 07:12:46;;;;;;;;;;;-1.60;99.90;;;;;;5079344;28;19913;-77
2021/01/19 07:15:14;;;;;;;;;;;-1.60;99.90;;;;;;5083221;28;20342;-77
2021/01/19 07:17:40;;;;;;;;;;;-1.60;99.90;;;;;;5076048;28;19920;-77
2021/01/19 07:20:06;;;;;;;;;;;-1.60;99.90;;;;;;5075196;28;20318;-77
2021/01/19 07:22:54;;;;;;;;;;;-1.70;99.90;;;;;;5075869;28;19934;-77
2021/01/19 07:25:20;;;;;;;;;;;-1.70;99.90;;;;;;5079488;28;19935;-77
2021/01/19 07:27:46;;;;;;;;;;;-1.70;99.90;;;;;;5085472;28;20277;-77
2021/01/19 07:30:13;;;;;;;;;;;-1.70;99.90;;;;;;5077502;28;19913;-77
2021/01/19 07:32:40;;;;;;;;;;;-1.80;99.90;;;;;;5095668;28;20272;-77
2021/01/19 07:35:06;;;;;;;;;;;-1.80;99.90;;;;;;5072361;28;20007;-77
2021/01/19 07:37:35;;;;;;;;;;;-1.80;99.90;;;;;;5072181;28;20353;-77
2021/01/19 07:40:02;;;;;;;;;;;-1.80;99.90;;;;;;5076182;28;19908;-77
2021/01/19 07:42:31;;;;;;;;;;;-1.80;99.90;;;;;;5075790;28;19912;-77
2021/01/19 07:44:57;;;;;;;;;;;-1.70;99.90;;;;;;5075240;28;20277;-76
2021/01/19 07:47:32;;;;;;;;;;;-1.70;99.90;;;;;;5071898;28;19912;-76
2021/01/19 07:50:02;;;;;;;;;;;-1.70;99.90;;;;;;5078569;28;19924;-77
2021/01/19 07:52:34;;;;;;;;;;;-1.60;99.90;;;;;;5072555;28;19932;-76
2021/01/19 07:55:10;;;;;;;;;;;-1.60;99.90;;;;;;5073682;28;19908;-76
2021/01/19 07:57:36;;;;;;;;;;;-1.50;99.90;;;;;;5070505;28;19912;-77
2021/01/19 08:00:03;;;;;;;;;;;-1.50;99.90;;;;;;5082820;28;19961;-77
2021/01/19 08:02:28;;;;;;;;;;;-1.50;99.90;;;;;;5077113;28;19970;-76
2021/01/19 08:05:01;;;;;;;;;;;-1.40;99.90;;;;;;5081006;28;20402;-77
2021/01/19 08:07:36;;;;;;;;;;;-1.30;99.90;;;;;;5081089;28;20011;-77
2021/01/19 08:10:02;;;;;;;;;;;-1.20;99.90;;;;;;5071578;28;20365;-76
2021/01/19 08:12:34;;;;;;;;;;;-1.10;99.90;;;;;;5082848;28;19919;-76
2021/01/19 08:15:02;;;;;;;;;;;-1.00;99.90;;;;;;5071371;28;19915;-76
2021/01/19 08:17:36;;;;;;;;;;;-0.90;99.90;;;;;;5072265;28;19916;-76
2021/01/19 08:20:04;;;;;;;;;;;-0.80;99.90;;;;;;5078950;28;19957;-76
2021/01/19 08:22:29;;;;;;;;;;;-0.70;99.90;;;;;;5075295;28;20262;-77
2021/01/19 08:24:59;;;;;;;;;;;-0.60;99.90;;;;;;5072751;28;19923;-77
2021/01/19 08:27:27;;;;;;;;;;;-0.40;99.90;;;;;;5071008;28;19908;-77
2021/01/19 08:29:52;;;;;;;;;;;-0.20;99.90;;;;;;5074431;28;20384;-76
2021/01/19 08:32:18;;;;;;;;;;;0.00;99.90;;;;;;5075207;28;20075;-76
2021/01/19 08:34:44;;;;;;;;;;;0.20;99.90;;;;;;5072181;28;19915;-76
2021/01/19 08:37:14;;;;;;;;;;;0.40;99.90;;;;;;5073089;28;19909;-77
2021/01/19 08:39:40;;;;;;;;;;;0.60;99.90;;;;;;5091213;28;19908;-77
2021/01/19 08:42:10;;;;;;;;;;;0.80;99.90;;;;;;5077698;28;20291;-77
2021/01/19 08:44:36;;;;;;;;;;;1.00;99.90;;;;;;5071917;28;20006;-77
2021/01/19 08:47:01;;;;;;;;;;;1.30;99.90;;;;;;5071616;28;20004;-77
2021/01/19 08:49:32;;;;;;;;;;;1.60;99.90;;;;;;5072046;28;19912;-77
2021/01/19 08:51:57;;;;;;;;;;;1.70;99.90;;;;;;5091451;28;19908;-77
2021/01/19 08:54:29;;;;;;;;;;;1.90;99.90;;;;;;5084035;28;19919;-77
2021/01/19 08:56:54;;;;;;;;;;;1.90;99.90;;;;;;5074854;28;19908;-77
2021/01/19 08:59:21;;;;;;;;;;;1.80;99.90;;;;;;5072427;28;19908;-77
2021/01/19 09:01:47;;;;;;;;;;;1.70;99.90;;;;;;5079701;28;20340;-77
2021/01/19 09:04:21;;;;;;;;;;;1.60;99.90;;;;;;5071002;28;20399;-77
2021/01/19 09:06:47;;;;;;;;;;;1.60;99.90;;;;;;5085358;28;19908;-77
2021/01/19 09:09:18;;;;;;;;;;;1.50;99.90;;;;;;5091117;28;20268;-76
2021/01/19 09:11:44;;;;;;;;;;;1.40;99.90;;;;;;5081129;28;19908;-77
2021/01/19 09:14:09;;;;;;;;;;;1.30;99.90;;;;;;5074253;28;19909;-77
2021/01/19 09:16:36;;;;;;;;;;;1.20;99.90;;;;;;5088393;28;19923;-77
2021/01/19 09:19:02;;;;;;;;;;;1.20;99.90;;;;;;5069881;28;20488;-77
2021/01/19 09:21:28;;;;;;;;;;;1.20;99.90;;;;;;5072225;28;19927;-77
2021/01/19 09:23:54;;;;;;;;;;;1.20;99.90;;;;;;5090850;28;19908;-77
2021/01/19 09:26:20;;;;;;;;;;;1.20;99.90;;;;;;5085849;28;19942;-77
2021/01/19 09:28:46;;;;;;;;;;;1.20;99.90;;;;;;5072872;28;19920;-77
2021/01/19 09:31:12;;;;;;;;;;;1.20;99.90;;;;;;5081600;28;19916;-77
2021/01/19 09:33:39;;;;;;;;;;;1.20;99.90;;;;;;5077253;28;19912;-77
2021/01/19 09:36:05;;;;;;;;;;;1.20;99.90;;;;;;5090413;28;19912;-77
2021/01/19 09:38:31;;;;;;;;;;;1.20;99.90;;;;;;5090791;28;20331;-77
2021/01/19 09:40:56;;;;;;;;;;;1.20;99.90;;;;;;5077306;28;19946;-77
2021/01/19 09:43:22;;;;;;;;;;;1.20;99.90;;;;;;5089409;28;19908;-77
2021/01/19 09:45:47;;;;;;;;;;;1.20;99.90;;;;;;5074108;28;20126;-77
2021/01/19 09:48:14;;;;;;;;;;;1.20;99.90;;;;;;5072323;28;19908;-77
2021/01/19 09:50:40;;;;;;;;;;;1.20;99.90;;;;;;5069907;28;19913;-77
2021/01/19 09:53:05;;;;;;;;;;;1.30;99.90;;;;;;5083178;28;19919;-77
2021/01/19 09:55:31;;;;;;;;;;;1.30;99.90;;;;;;5089158;28;19992;-77
2021/01/19 09:58:03;;;;;;;;;;;1.30;99.90;;;;;;5089244;28;19957;-77
2021/01/19 10:00:29;;;;;;;;;;;1.40;99.90;;;;;;5075397;28;19915;-77
2021/01/19 10:02:55;;;;;;;;;;;1.40;99.90;;;;;;5077814;28;19921;-77
2021/01/19 10:05:21;;;;;;;;;;;1.50;99.90;;;;;;5088850;28;19912;-77
2021/01/19 10:07:48;;;;;;;;;;;1.50;99.90;;;;;;5082260;28;19912;-77
2021/01/19 10:10:14;;;;;;;;;;;1.50;99.90;;;;;;5076855;28;19915;-77
2021/01/19 10:12:40;;;;;;;;;;;1.50;99.90;;;;;;5080736;28;20285;-77
2021/01/19 10:15:07;;;;;;;;;;;1.50;99.90;;;;;;5081796;28;19912;-77
2021/01/19 10:17:33;;;;;;;;;;;1.40;99.90;;;;;;5077784;28;19919;-77
2021/01/19 10:20:25;;;;;;;;;;;1.40;99.90;;;;;;5073781;28;20460;-77
2021/01/19 10:22:56;;;;;;;;;;;1.50;99.90;;;;;;5077486;28;19962;-77
2021/01/19 10:25:28;;;;;;;;;;;1.50;99.90;;;;;;5092939;28;19916;-77
2021/01/19 10:27:55;;;;;;;;;;;1.60;99.90;;;;;;5093608;28;20296;-77
2021/01/19 10:30:26;;;;;;;;;;;1.60;99.90;;;;;;5083843;28;19917;-77
2021/01/19 10:32:52;;;;;;;;;;;1.70;99.90;;;;;;5084453;28;19908;-77
2021/01/19 10:35:25;;;;;;;;;;;1.70;99.90;;;;;;5074893;28;19909;-77
2021/01/19 10:37:54;;;;;;;;;;;1.80;99.90;;;;;;5074242;28;19989;-77
2021/01/19 10:40:20;;;;;;;;;;;1.80;99.90;;;;;;5085905;28;19938;-76
2021/01/19 10:42:45;;;;;;;;;;;1.80;99.90;;;;;;5073017;28;20055;-77
2021/01/19 10:45:11;;;;;;;;;;;1.80;99.90;;;;;;5074403;28;19915;-77
2021/01/19 10:47:40;;;;;;;;;;;1.80;99.90;;;;;;5073438;28;20284;-77
2021/01/19 10:50:15;;;;;;;;;;;1.90;99.90;;;;;;5073737;28;19913;-77
2021/01/19 10:52:41;;;;;;;;;;;1.90;99.90;;;;;;5074101;28;19912;-77
2021/01/19 10:55:10;;;;;;;;;;;2.00;99.90;;;;;;5080635;28;19999;-77
2021/01/19 10:57:36;;;;;;;;;;;2.10;99.90;;;;;;5073857;28;19913;-77
2021/01/19 11:00:02;;;;;;;;;;;2.10;99.90;;;;;;5082423;28;19916;-77
2021/01/19 11:02:30;;;;;;;;;;;2.20;99.90;;;;;;5084863;28;19960;-77
2021/01/19 11:04:55;;;;;;;;;;;2.20;99.90;;;;;;5074423;28;19920;-77
2021/01/19 11:07:21;;;;;;;;;;;2.30;99.90;;;;;;5073744;28;20301;-77
2021/01/19 11:09:46;;;;;;;;;;;2.30;99.90;;;;;;5073746;28;20007;-77
2021/01/19 11:12:15;;;;;;;;;;;2.40;99.90;;;;;;5073934;28;19916;-77
2021/01/19 11:14:41;;;;;;;;;;;2.50;99.90;;;;;;5072543;28;19912;-77
2021/01/19 11:17:06;;;;;;;;;;;2.60;99.90;;;;;;5073390;28;20421;-76
2021/01/19 11:19:32;;;;;;;;;;;2.60;99.90;;;;;;5073641;28;19909;-76
2021/01/19 11:21:57;;;;;;;;;;;2.60;99.90;;;;;;5072296;28;19938;-77
2021/01/19 11:24:23;;;;;;;;;;;2.60;99.90;;;;;;5073423;28;19918;-77
2021/01/19 11:26:48;;;;;;;;;;;2.70;99.90;;;;;;5071909;28;19959;-77
2021/01/19 11:29:13;;;;;;;;;;;2.70;99.90;;;;;;5075577;28;19908;-78
2021/01/19 11:31:39;;;;;;;;;;;2.70;99.90;;;;;;5085524;28;20288;-77
2021/01/19 11:34:06;;;;;;;;;;;2.60;99.90;;;;;;5073373;28;19912;-77
2021/01/19 11:36:33;;;;;;;;;;;2.60;99.90;;;;;;5073076;28;20293;-77
2021/01/19 11:38:59;;;;;;;;;;;2.60;99.90;;;;;;5073160;28;19927;-77
2021/01/19 11:41:25;;;;;;;;;;;2.60;99.90;;;;;;5073303;28;19912;-77
2021/01/19 11:43:51;;;;;;;;;;;2.50;99.90;;;;;;5087897;28;19953;-78
2021/01/19 11:46:22;;;;;;;;;;;2.50;99.90;;;;;;5091027;28;19909;-78
2021/01/19 11:48:49;;;;;;;;;;;2.50;99.90;;;;;;5091144;28;19908;-78
2021/01/19 11:51:15;;;;;;;;;;;2.50;99.90;;;;;;5092833;28;19908;-78
2021/01/19 11:53:41;;;;;;;;;;;2.50;99.90;;;;;;5092396;28;20054;-78
2021/01/19 11:56:06;;;;;;;;;;;2.50;99.90;;;;;;5092136;28;20198;-78
2021/01/19 11:58:32;;;;;;;;;;;2.60;99.90;;;;;;5089810;28;20258;-78
2021/01/19 12:00:57;;;;;;;;;;;2.60;99.90;;;;;;5082648;28;19908;-78
2021/01/19 12:03:22;;;;;;;;;;;2.60;99.90;;;;;;5076464;28;20387;-78
2021/01/19 12:05:48;;;;;;;;;;;2.60;99.90;;;;;;5072082;28;19955;-78
2021/01/19 12:08:14;;;;;;;;;;;2.60;99.90;;;;;;5071496;28;19908;-78
2021/01/19 12:10:43;;;;;;;;;;;2.60;99.90;;;;;;5072856;28;19954;-78
2021/01/19 12:13:09;;;;;;;;;;;2.70;99.90;;;;;;5072536;28;19908;-78
2021/01/19 12:15:34;;;;;;;;;;;2.70;99.90;;;;;;5072648;28;20379;-78
2021/01/19 12:18:00;;;;;;;;;;;2.70;99.90;;;;;;5072445;28;19935;-78
2021/01/19 12:20:25;;;;;;;;;;;2.80;99.90;;;;;;5072519;28;20327;-78
2021/01/19 12:22:51;;;;;;;;;;;2.80;99.90;;;;;;5072474;28;19916;-78
2021/01/19 12:25:16;;;;;;;;;;;2.80;99.90;;;;;;5071267;28;19916;-78
2021/01/19 12:27:42;;;;;;;;;;;2.80;99.90;;;;;;5071102;28;19916;-78
2021/01/19 12:30:08;;;;;;;;;;;2.80;99.90;;;;;;5081115;28;19913;-78
2021/01/19 12:32:33;;;;;;;;;;;2.80;99.90;;;;;;5079638;28;19970;-78
2021/01/19 12:34:58;;;;;;;;;;;2.80;99.90;;;;;;5072597;28;19958;-78
2021/01/19 12:37:24;;;;;;;;;;;2.90;99.90;;;;;;5072540;28;19908;-78
2021/01/19 12:39:50;;;;;;;;;;;2.90;99.90;;;;;;5071951;28;19991;-78
2021/01/19 12:42:15;;;;;;;;;;;2.90;99.90;;;;;;5072602;28;19917;-78
2021/01/19 12:44:40;;;;;;;;;;;2.90;99.90;;;;;;5071517;28;20386;-78
2021/01/19 12:47:07;;;;;;;;;;;2.90;99.90;;;;;;5072158;28;19912;-78
2021/01/19 12:49:32;;;;;;;;;;;3.00;99.90;;;;;;5071911;28;19912;-78
2021/01/19 12:51:58;;;;;;;;;;;3.00;99.90;;;;;;5072221;28;19913;-78
2021/01/19 12:54:23;;;;;;;;;;;3.00;99.90;;;;;;5072217;28;19916;-78
2021/01/19 12:56:49;;;;;;;;;;;3.00;99.90;;;;;;5071736;28;19967;-78
2021/01/19 12:59:14;;;;;;;;;;;3.10;99.90;;;;;;5071856;28;19915;-78
2021/01/19 13:01:40;;;;;;;;;;;3.10;99.90;;;;;;5080257;28;19923;-78
2021/01/19 13:04:05;;;;;;;;;;;3.20;99.90;;;;;;5071780;28;19999;-77
2021/01/19 13:06:31;;;;;;;;;;;3.20;99.90;;;;;;5071524;28;19938;-78
2021/01/19 13:08:56;;;;;;;;;;;3.30;99.90;;;;;;5071773;28;20349;-77
2021/01/19 13:11:22;;;;;;;;;;;3.30;99.90;;;;;;5071868;28;19909;-78
2021/01/19 13:13:47;;;;;;;;;;;3.30;99.90;;;;;;5071824;28;19934;-77
2021/01/19 13:16:13;;;;;;;;;;;3.30;99.90;;;;;;5071240;28;20420;-78
2021/01/19 13:18:40;;;;;;;;;;;3.30;99.90;;;;;;5069964;28;19909;-78
2021/01/19 13:21:05;;;;;;;;;;;3.30;99.90;;;;;;5071528;28;19927;-77
2021/01/19 13:23:31;;;;;;;;;;;3.30;99.90;;;;;;5071514;28;20297;-77
2021/01/19 13:25:56;;;;;;;;;;;3.30;99.90;;;;;;5071131;28;19961;-77
2021/01/19 13:28:22;;;;;;;;;;;3.30;99.90;;;;;;5071484;28;20258;-77
2021/01/19 13:30:48;;;;;;;;;;;3.30;99.90;;;;;;5090693;28;19916;-77
2021/01/19 13:33:13;;;;;;;;;;;3.30;99.90;;;;;;5079144;28;19909;-77
2021/01/19 13:35:39;;;;;;;;;;;3.30;99.90;;;;;;5069944;28;20439;-77
2021/01/19 13:38:04;;;;;;;;;;;3.30;99.90;;;;;;5071458;28;19915;-77
2021/01/19 13:40:30;;;;;;;;;;;3.30;99.90;;;;;;5071391;28;20293;-77
2021/01/19 13:42:55;;;;;;;;;;;3.30;99.90;;;;;;5071428;28;19923;-77
2021/01/19 13:45:23;;;;;;;;;;;3.30;99.90;;;;;;5071389;28;19963;-77
2021/01/19 13:47:49;;;;;;;;;;;3.30;99.90;;;;;;5069525;28;19958;-77
2021/01/19 13:50:14;;;;;;;;;;;3.30;99.90;;;;;;5072139;28;19916;-77
2021/01/19 13:52:40;;;;;;;;;;;3.30;99.90;;;;;;5075813;28;20258;-77
2021/01/19 13:55:05;;;;;;;;;;;3.30;99.90;;;;;;5075581;28;20361;-77
2021/01/19 13:57:31;;;;;;;;;;;3.30;99.90;;;;;;5075191;28;19908;-77
2021/01/19 13:59:57;;;;;;;;;;;3.30;99.90;;;;;;5083968;28;19970;-76
2021/01/19 14:02:22;;;;;;;;;;;3.30;99.90;;;;;;5088045;28;19936;-77
2021/01/19 14:04:48;;;;;;;;;;;3.30;99.90;;;;;;5073796;28;20369;-76
2021/01/19 14:07:13;;;;;;;;;;;3.30;99.90;;;;;;5074763;28;19909;-77
2021/01/19 14:09:39;;;;;;;;;;;3.30;99.90;;;;;;5074939;28;19924;-77
2021/01/19 14:12:05;;;;;;;;;;;3.30;99.90;;;;;;5075105;28;19909;-77
2021/01/19 14:14:30;;;;;;;;;;;3.30;99.90;;;;;;5075062;28;20421;-77
2021/01/19 14:16:56;;;;;;;;;;;3.40;99.90;;;;;;5073302;28;19916;-77
2021/01/19 14:19:22;;;;;;;;;;;3.40;99.90;;;;;;5074784;28;20007;-76
2021/01/19 14:21:52;;;;;;;;;;;3.40;99.90;;;;;;5075143;28;20003;-76
2021/01/19 14:24:17;;;;;;;;;;;3.40;99.90;;;;;;5073440;28;19961;-76
2021/01/19 14:26:42;;;;;;;;;;;3.40;99.90;;;;;;5074637;28;19912;-76